Time;durP1;ratioP1;P1;durP2;ratioP2;P2;SDS_P1;SDS_P2;PMS_P1;PMS_P2;Temp;Humidity;BMP_temperature;BMP_pressure;BME280_temperature;BME280_humidity;BME280_pressure;Samples;Min_cycle;Max_cycle;Signal;HPM_P1;HPM_P2
2022/07/25 00:00:33;;;;;;;6.22;4.00;;;22.80;99.90;;;;;;12419197;28;20133;-40
2022/07/25 00:06:35;;;;;;;5.20;3.80;;;22.90;99.90;;;;;;12419847;28;20050;-38
2022/07/25 00:12:37;;;;;;;6.55;4.15;;;22.90;99.90;;;;;;12414732;28;20051;-38
2022/07/25 00:18:39;;;;;;;5.20;4.00;;;22.90;99.90;;;;;;12409732;28;20154;-34
2022/07/25 00:24:41;;;;;;;6.32;4.10;;;22.90;99.90;;;;;;12412568;28;20058;-34
2022/07/25 00:30:43;;;;;;;7.40;4.15;;;22.80;99.90;;;;;;12419620;28;20493;-34
2022/07/25 00:36:45;;;;;;;6.90;3.78;;;22.80;99.90;;;;;;12401611;28;20053;-34
2022/07/25 00:42:46;;;;;;;7.35;4.53;;;22.80;99.90;;;;;;12408013;28;20050;-39
2022/07/25 00:48:48;;;;;;;6.15;4.07;;;23.10;99.90;;;;;;12421104;28;20541;-36
2022/07/25 00:54:50;;;;;;;6.35;4.28;;;22.80;99.90;;;;;;12411655;28;20065;-35
2022/07/25 01:00:52;;;;;;;7.70;4.60;;;22.40;99.90;;;;;;12418890;28;20058;-35
2022/07/25 01:06:54;;;;;;;6.00;4.47;;;22.20;99.90;;;;;;12417572;28;20543;-34
2022/07/25 01:12:56;;;;;;;5.88;4.05;;;22.10;99.90;;;;;;12430931;28;20133;-40
2022/07/25 01:18:58;;;;;;;7.10;4.53;;;21.80;99.90;;;;;;12428861;28;20095;-39
2022/07/25 01:25:00;;;;;;;7.07;3.90;;;21.90;99.90;;;;;;12419216;28;20046;-39
2022/07/25 01:31:02;;;;;;;4.38;3.45;;;22.30;99.90;;;;;;12419988;28;20200;-34
2022/07/25 01:37:03;;;;;;;4.85;3.47;;;22.70;99.90;;;;;;12408072;28;20061;-34
2022/07/25 01:43:05;;;;;;;5.88;4.07;;;22.90;99.90;;;;;;12407469;28;20184;-35
2022/07/25 01:49:07;;;;;;;6.38;3.83;;;23.00;99.90;;;;;;12403169;28;20117;-39
2022/07/25 01:55:10;;;;;;;10.25;3.85;;;23.10;99.90;;;;;;12427791;28;20498;-38
2022/07/25 02:01:12;;;;;;;5.93;3.80;;;23.10;99.90;;;;;;12425292;28;20050;-39
2022/07/25 02:07:14;;;;;;;5.38;3.85;;;23.20;99.90;;;;;;12421161;28;20267;-34
2022/07/25 02:13:16;;;;;;;5.65;3.63;;;23.30;99.90;;;;;;12423776;28;20050;-39
2022/07/25 02:19:17;;;;;;;4.85;3.08;;;23.20;99.90;;;;;;12427828;28;20123;-38
2022/07/25 02:25:19;;;;;;;6.35;3.65;;;23.30;99.90;;;;;;12426766;28;20097;-39
2022/07/25 02:31:21;;;;;;;6.65;3.88;;;23.30;99.90;;;;;;12421068;28;20127;-40
2022/07/25 02:37:23;;;;;;;7.68;3.65;;;23.20;99.90;;;;;;12405985;28;20054;-40
2022/07/25 02:43:25;;;;;;;5.13;4.13;;;23.20;99.90;;;;;;12430702;28;20499;-38
2022/07/25 02:49:27;;;;;;;6.10;3.50;;;23.20;99.90;;;;;;12426746;28;20093;-38
2022/07/25 02:55:29;;;;;;;6.70;3.67;;;23.10;99.90;;;;;;12427322;28;20572;-34
2022/07/25 03:01:31;;;;;;;8.18;4.07;;;23.00;99.90;;;;;;12420915;28;20065;-34
2022/07/25 03:07:33;;;;;;;5.38;3.70;;;22.90;99.90;;;;;;12423400;28;20103;-39
2022/07/25 03:13:35;;;;;;;7.43;3.85;;;22.80;99.90;;;;;;12424928;28;20054;-34
2022/07/25 03:19:37;;;;;;;7.00;3.97;;;22.70;99.90;;;;;;12421651;28;20049;-40
2022/07/25 03:25:39;;;;;;;7.55;3.75;;;22.50;99.90;;;;;;12418681;28;20046;-34
2022/07/25 03:31:40;;;;;;;6.43;3.72;;;22.40;99.90;;;;;;12422614;28;20272;-38
2022/07/25 03:37:42;;;;;;;6.32;3.90;;;22.40;99.90;;;;;;12416315;28;20160;-34
2022/07/25 03:43:44;;;;;;;5.82;3.90;;;22.40;99.90;;;;;;12413362;28;20101;-34
2022/07/25 03:49:46;;;;;;;5.00;3.92;;;22.40;99.90;;;;;;12424601;28;20108;-39
2022/07/25 03:55:48;;;;;;;9.30;4.40;;;22.50;99.90;;;;;;12414259;28;20042;-35
2022/07/25 04:01:50;;;;;;;6.15;4.22;;;22.40;99.90;;;;;;12422797;28;20137;-39
2022/07/25 04:07:51;;;;;;;5.72;4.65;;;22.30;99.90;;;;;;12416651;28;20054;-38
2022/07/25 04:13:54;;;;;;;6.40;4.50;;;22.30;99.90;;;;;;12423052;28;20120;-35
2022/07/25 04:19:56;;;;;;;6.43;4.33;;;22.60;99.90;;;;;;12412897;28;20197;-34
2022/07/25 04:25:58;;;;;;;8.05;4.60;;;22.60;99.90;;;;;;12420598;28;20516;-39
2022/07/25 04:31:59;;;;;;;6.10;4.05;;;22.70;99.90;;;;;;12425232;28;20050;-38
2022/07/25 04:38:01;;;;;;;9.27;4.95;;;22.70;99.90;;;;;;12406709;28;20137;-39
2022/07/25 04:44:03;;;;;;;5.82;4.20;;;22.80;99.90;;;;;;12415682;28;20181;-38
2022/07/25 04:50:07;;;;;;;5.03;4.15;;;22.90;99.90;;;;;;12415157;28;20418;-39
2022/07/25 04:56:09;;;;;;;7.60;4.27;;;23.00;99.90;;;;;;12375020;28;20495;-34
2022/07/25 05:02:11;;;;;;;6.95;4.00;;;23.20;99.90;;;;;;12416177;28;20104;-34
2022/07/25 05:08:13;;;;;;;8.77;4.35;;;23.30;99.90;;;;;;12411136;28;20081;-35
2022/07/25 05:14:15;;;;;;;5.90;4.20;;;23.30;99.90;;;;;;12421205;28;20084;-35
2022/07/25 05:20:17;;;;;;;5.50;4.10;;;23.30;99.90;;;;;;12426769;28;20055;-34
2022/07/25 05:26:18;;;;;;;10.18;4.45;;;23.40;99.90;;;;;;12414236;28;20042;-35
2022/07/25 05:32:20;;;;;;;5.65;4.10;;;23.50;99.90;;;;;;12419471;28;20054;-39
2022/07/25 05:38:22;;;;;;;6.40;4.30;;;23.70;99.90;;;;;;12414873;28;20065;-39
2022/07/25 05:44:24;;;;;;;7.90;5.03;;;23.80;99.90;;;;;;12405536;28;20088;-39
2022/07/25 05:50:26;;;;;;;6.57;4.65;;;23.90;99.90;;;;;;12416977;28;20502;-34
2022/07/25 05:56:28;;;;;;;6.22;4.25;;;24.10;99.90;;;;;;12412944;28;20061;-35
2022/07/25 06:02:30;;;;;;;8.48;4.72;;;24.30;99.90;;;;;;12421593;28;20531;-34
2022/07/25 06:08:32;;;;;;;6.68;4.50;;;24.30;99.90;;;;;;12418298;28;20104;-39
2022/07/25 06:14:34;;;;;;;5.65;4.30;;;24.40;99.90;;;;;;12413133;28;20050;-34
2022/07/25 06:20:36;;;;;;;4.88;4.22;;;24.50;99.90;;;;;;12421502;28;22583;-34
2022/07/25 06:26:38;;;;;;;9.40;4.55;;;24.60;99.90;;;;;;12426010;28;20053;-39
2022/07/25 06:32:40;;;;;;;6.78;4.63;;;24.80;99.90;;;;;;12416083;28;20050;-35
2022/07/25 06:38:41;;;;;;;8.10;5.30;;;25.00;99.90;;;;;;12418803;28;20046;-35
2022/07/25 06:44:43;;;;;;;5.88;4.60;;;25.00;99.90;;;;;;12426413;28;20065;-34
2022/07/25 06:50:45;;;;;;;10.35;4.38;;;25.00;99.90;;;;;;12415247;28;20058;-38
2022/07/25 06:56:47;;;;;;;5.10;4.35;;;25.00;99.90;;;;;;12420346;28;20080;-34
2022/07/25 07:02:58;;;;;;;7.82;4.43;;;25.00;99.90;;;;;;12426021;28;20455;-39
2022/07/25 07:09:00;;;;;;;5.65;4.05;;;25.00;99.90;;;;;;12408291;28;20057;-39
2022/07/25 07:15:02;;;;;;;7.45;4.32;;;25.10;99.90;;;;;;12418742;28;20058;-34
2022/07/25 07:21:04;;;;;;;7.93;4.22;;;25.20;99.90;;;;;;12421912;28;20141;-34
2022/07/25 07:27:06;;;;;;;5.93;4.80;;;25.40;99.90;;;;;;12414327;28;20510;-39
2022/07/25 07:33:08;;;;;;;7.63;4.40;;;25.60;99.90;;;;;;12413745;28;20595;-34
2022/07/25 07:39:10;;;;;;;5.60;4.87;;;25.80;99.90;;;;;;12413600;28;21241;-38
2022/07/25 07:45:16;;;;;;;7.68;5.13;;;26.00;99.90;;;;;;12410345;28;20464;-38
2022/07/25 07:51:18;;;;;;;6.47;4.40;;;26.10;99.90;;;;;;12419853;28;20062;-35
2022/07/25 07:57:20;;;;;;;5.40;4.57;;;26.30;99.90;;;;;;12415733;28;20523;-35
2022/07/25 08:03:22;;;;;;;6.32;4.90;;;26.30;99.90;;;;;;12412650;28;20059;-34
2022/07/25 08:09:24;;;;;;;13.23;5.15;;;26.40;99.90;;;;;;12413247;28;20053;-36
2022/07/25 08:15:26;;;;;;;7.97;4.88;;;26.60;99.90;;;;;;12417942;28;20565;-38
2022/07/25 08:21:28;;;;;;;6.25;4.65;;;26.70;99.90;;;;;;12426596;28;20128;-38
2022/07/25 08:27:30;;;;;;;7.13;4.80;;;26.90;99.90;;;;;;12408771;28;20091;-36
2022/07/25 08:33:31;;;;;;;7.30;5.13;;;27.10;99.90;;;;;;12413944;28;20396;-39
2022/07/25 08:39:33;;;;;;;7.83;4.90;;;27.50;99.90;;;;;;12430822;28;20482;-36
2022/07/25 08:45:38;;;;;;;8.67;4.90;;;27.80;99.90;;;;;;12418243;28;20058;-41
2022/07/25 08:51:40;;;;;;;7.35;4.82;;;28.00;99.90;;;;;;12424559;28;20053;-35
2022/07/25 08:57:42;;;;;;;7.63;5.13;;;28.00;99.90;;;;;;12419930;28;20445;-39
2022/07/25 09:03:44;;;;;;;6.50;4.75;;;28.00;99.90;;;;;;12414896;28;20080;-39
2022/07/25 09:09:47;;;;;;;6.87;4.90;;;28.00;99.90;;;;;;12405411;28;20046;-35
2022/07/25 09:15:55;;;;;;;6.13;4.32;;;28.00;99.90;;;;;;12408188;28;20159;-39
2022/07/25 09:22:03;;;;;;;5.90;4.82;;;28.10;99.90;;;;;;12409857;28;20643;-39
2022/07/25 09:28:17;;;;;;;6.25;4.60;;;28.20;99.90;;;;;;12411077;28;20391;-39
2022/07/25 09:34:38;;;;;;;8.55;4.57;;;28.40;99.90;;;;;;12386203;28;20045;-36
2022/07/25 09:40:41;;;;;;;8.77;4.72;;;28.30;99.90;;;;;;12390170;28;20104;-35
2022/07/25 09:46:43;;;;;;;6.13;4.78;;;28.10;99.90;;;;;;12406859;28;20506;-35
2022/07/25 09:52:45;;;;;;;;;;;28.30;99.90;;;;;;12406174;28;20054;-38
2022/07/25 09:58:47;;;;;;;10.88;5.22;;;28.20;99.90;;;;;;12407564;28;20064;-35
2022/07/25 10:05:16;;;;;;;6.17;4.93;;;28.10;99.90;;;;;;12409401;28;20042;-40
2022/07/25 10:11:26;;;;;;;9.07;5.28;;;28.00;99.90;;;;;;12422198;28;20053;-38
2022/07/25 10:17:28;;;;;;;9.07;5.05;;;28.00;99.90;;;;;;12431492;28;20061;-35
2022/07/25 10:23:30;;;;;;;10.57;5.50;;;28.00;99.90;;;;;;12423974;28;20125;-39
2022/07/25 10:29:34;;;;;;;7.17;4.83;;;27.90;99.90;;;;;;12431519;28;20046;-39
2022/07/25 10:35:36;;;;;;;8.25;5.18;;;27.70;99.90;;;;;;12428933;28;20104;-39
2022/07/25 10:41:39;;;;;;;8.20;4.95;;;27.70;99.90;;;;;;12419130;28;20136;-40
2022/07/25 10:47:52;;;;;;;8.40;5.00;;;27.60;99.90;;;;;;12418431;28;20110;-35
2022/07/25 10:53:55;;;;;;;7.13;4.63;;;27.60;99.90;;;;;;12416083;28;20046;-35
2022/07/25 11:00:07;;;;;;;8.40;4.72;;;27.60;99.90;;;;;;12407612;28;20144;-41
2022/07/25 11:06:11;;;;;;;6.72;4.50;;;27.70;99.90;;;;;;12428399;28;20525;-40
2022/07/25 11:12:15;;;;;;;9.57;5.03;;;27.80;99.90;;;;;;12423314;28;20483;-39
2022/07/25 11:18:17;;;;;;;7.20;4.60;;;28.20;99.90;;;;;;12417280;28;20046;-35
2022/07/25 11:24:19;;;;;;;8.07;5.05;;;29.00;99.90;;;;;;12418603;28;20049;-39
2022/07/25 11:30:21;;;;;;;9.40;4.50;;;29.00;99.90;;;;;;12422163;28;20092;-35
2022/07/25 11:36:23;;;;;;;7.90;4.70;;;29.10;99.90;;;;;;12424380;28;20104;-39
2022/07/25 11:42:27;;;;;;;7.40;4.60;;;28.70;99.90;;;;;;12420617;28;20309;-41
2022/07/25 11:48:31;;;;;;;9.25;4.65;;;28.70;99.90;;;;;;12416425;28;20054;-40
2022/07/25 11:54:33;;;;;;;7.55;4.43;;;28.70;99.90;;;;;;12414102;28;20053;-35
2022/07/25 12:00:41;;;;;;;8.27;4.83;;;28.80;99.90;;;;;;12421531;28;20088;-38
2022/07/25 12:06:45;;;;;;;7.70;4.70;;;28.70;99.90;;;;;;12419579;28;20046;-37
2022/07/25 12:12:55;;;;;;;9.38;4.88;;;28.30;99.90;;;;;;12426292;28;20099;-35
2022/07/25 12:18:57;;;;;;;6.45;4.47;;;28.30;99.90;;;;;;12417434;28;20505;-35
2022/07/25 12:24:59;;;;;;;8.50;4.78;;;28.10;99.90;;;;;;12412250;28;20584;-39
2022/07/25 12:31:01;;;;;;;7.13;4.93;;;28.10;99.90;;;;;;12414547;28;20103;-40
2022/07/25 12:37:03;;;;;;;9.40;5.20;;;28.20;99.90;;;;;;12427160;28;20050;-39
2022/07/25 12:43:05;;;;;;;6.72;4.97;;;29.00;99.90;;;;;;12414165;28;20494;-41
2022/07/25 12:49:07;;;;;;;6.28;4.68;;;29.90;99.90;;;;;;12410970;28;20643;-37
2022/07/25 12:55:12;;;;;;;7.43;4.57;;;30.50;99.90;;;;;;12420177;28;20034;-40
2022/07/25 13:01:14;;;;;;;6.95;4.25;;;30.80;99.90;;;;;;12415942;28;20061;-41
2022/07/25 13:07:16;;;;;;;5.63;4.32;;;30.80;99.90;;;;;;12423351;28;20116;-41
2022/07/25 13:13:18;;;;;;;5.47;4.35;;;31.10;99.90;;;;;;12422504;28;20582;-41
2022/07/25 13:19:20;;;;;;;7.40;4.80;;;31.10;99.90;;;;;;12414373;28;20136;-35
2022/07/25 13:25:22;;;;;;;7.82;4.95;;;31.30;99.90;;;;;;12408179;28;20054;-39
2022/07/25 13:31:23;;;;;;;6.70;4.47;;;31.20;99.90;;;;;;12417435;28;20054;-40
2022/07/25 13:37:25;;;;;;;7.28;4.97;;;30.40;99.90;;;;;;12415809;28;20050;-35
2022/07/25 13:43:27;;;;;;;6.78;4.65;;;30.20;99.90;;;;;;12410615;28;20096;-35
2022/07/25 13:49:30;;;;;;;9.15;5.50;;;30.10;99.90;;;;;;12409759;28;20509;-41
2022/07/25 13:55:32;;;;;;;10.10;5.57;;;29.60;99.90;;;;;;12430253;28;20049;-40
2022/07/25 14:01:34;;;;;;;9.93;6.00;;;29.20;99.90;;;;;;12432175;28;20057;-40
2022/07/25 14:07:36;;;;;;;8.32;5.65;;;29.00;99.90;;;;;;12418382;28;20531;-35
2022/07/25 14:13:38;;;;;;;7.67;6.00;;;29.00;99.90;;;;;;12430402;28;20068;-35
2022/07/25 14:19:40;;;;;;;11.57;5.47;;;28.80;99.90;;;;;;12432624;28;20104;-35
2022/07/25 14:25:42;;;;;;;10.33;6.17;;;28.80;99.90;;;;;;12416636;28;20080;-40
2022/07/25 14:31:44;;;;;;;14.18;5.93;;;28.70;99.90;;;;;;12433335;28;20073;-38
2022/07/25 14:37:46;;;;;;;9.55;5.80;;;28.50;99.90;;;;;;12424567;28;20107;-38
2022/07/25 14:43:48;;;;;;;7.67;5.83;;;28.20;99.90;;;;;;12419825;28;20141;-35
2022/07/25 14:49:50;;;;;;;6.70;5.20;;;28.00;99.90;;;;;;12426887;28;20056;-35
2022/07/25 14:55:51;;;;;;;7.80;5.00;;;28.00;99.90;;;;;;12407059;28;20069;-39
2022/07/25 15:01:53;;;;;;;9.60;4.80;;;28.10;99.90;;;;;;12421720;28;20058;-35
2022/07/25 15:07:55;;;;;;;6.27;3.60;;;27.70;99.90;;;;;;12427809;28;20058;-39
2022/07/25 15:13:57;;;;;;;4.60;3.70;;;27.70;99.90;;;;;;12421183;28;20046;-36
2022/07/25 15:19:59;;;;;;;5.60;3.87;;;27.30;99.90;;;;;;12418250;28;20058;-38
2022/07/25 15:26:01;;;;;;;11.73;3.37;;;26.90;99.90;;;;;;12422368;28;20046;-39
2022/07/25 15:32:05;;;;;;;7.35;3.67;;;27.00;99.90;;;;;;12419839;28;20530;-35
2022/07/25 15:38:06;;;;;;;6.18;3.58;;;27.00;99.90;;;;;;12420074;28;20137;-35
2022/07/25 15:44:08;;;;;;;5.13;3.00;;;27.10;99.90;;;;;;12413986;28;20096;-39
2022/07/25 15:50:12;;;;;;;7.80;2.97;;;27.10;99.90;;;;;;12422355;28;20058;-40
2022/07/25 15:56:15;;;;;;;6.68;2.92;;;26.50;99.90;;;;;;12415909;28;20093;-34
2022/07/25 16:02:16;;;;;;;5.72;2.30;;;26.40;99.90;;;;;;12416637;28;20757;-39
2022/07/25 16:08:18;;;;;;;5.22;2.25;;;26.30;99.90;;;;;;12417090;28;20073;-38
2022/07/25 16:14:20;;;;;;;4.13;1.58;;;26.30;99.90;;;;;;12419660;28;20084;-39
2022/07/25 16:20:22;;;;;;;4.88;1.63;;;26.30;99.90;;;;;;12416607;28;20494;-35
2022/07/25 16:26:24;;;;;;;4.70;1.50;;;26.40;99.90;;;;;;12419429;28;20498;-35
2022/07/25 16:32:27;;;;;;;2.67;1.45;;;25.90;99.90;;;;;;12427830;28;20046;-39
2022/07/25 16:38:30;;;;;;;3.88;1.45;;;25.60;99.90;;;;;;12425029;28;20092;-39
2022/07/25 16:44:31;;;;;;;4.90;1.80;;;25.70;99.90;;;;;;12416712;28;20391;-40
2022/07/25 16:50:33;;;;;;;7.50;2.00;;;25.50;99.90;;;;;;12414577;28;20062;-34
2022/07/25 16:56:36;;;;;;;4.28;1.70;;;25.20;99.90;;;;;;12405506;28;20049;-35
2022/07/25 17:02:38;;;;;;;4.40;2.03;;;24.90;99.90;;;;;;12418803;28;20103;-40
2022/07/25 17:08:40;;;;;;;4.72;2.30;;;24.70;99.90;;;;;;12414157;28;20058;-41
2022/07/25 17:14:43;;;;;;;5.40;2.22;;;24.60;99.90;;;;;;12410466;28;20079;-35
2022/07/25 17:20:45;;;;;;;6.43;1.92;;;24.20;99.90;;;;;;12419674;28;20050;-34
2022/07/25 17:26:47;;;;;;;6.97;2.47;;;24.10;99.90;;;;;;12416425;28;20103;-39
2022/07/25 17:32:48;;;;;;;7.85;2.30;;;24.00;99.90;;;;;;12426338;28;20042;-40
2022/07/25 17:38:50;;;;;;;8.32;2.55;;;23.80;99.90;;;;;;12405555;28;20046;-40
2022/07/25 17:44:52;;;;;;;3.33;1.85;;;23.70;99.90;;;;;;12421550;28;20043;-42
2022/07/25 17:50:54;;;;;;;7.15;2.83;;;23.70;99.90;;;;;;12413761;28;20200;-36
2022/07/25 17:56:57;;;;;;;8.20;2.20;;;23.60;99.90;;;;;;12405926;28;20050;-35
2022/07/25 18:02:59;;;;;;;6.68;1.77;;;23.70;99.90;;;;;;12420266;28;20449;-40
2022/07/25 18:09:01;;;;;;;3.10;1.77;;;23.80;99.90;;;;;;12410538;28;20104;-35
2022/07/25 18:15:04;;;;;;;5.65;1.85;;;23.70;99.90;;;;;;12428336;28;20072;-35
2022/07/25 18:21:05;;;;;;;8.80;2.00;;;23.50;99.90;;;;;;12411945;28;20046;-35
2022/07/25 18:27:07;;;;;;;5.10;2.00;;;23.30;99.90;;;;;;12415605;28;20082;-39
2022/07/25 18:33:09;;;;;;;10.75;2.58;;;23.30;99.90;;;;;;12417485;28;20532;-39
2022/07/25 18:39:11;;;;;;;5.93;2.08;;;23.20;99.90;;;;;;12412407;28;20046;-34
2022/07/25 18:45:13;;;;;;;5.45;2.15;;;23.10;99.90;;;;;;12424013;28;20051;-39
2022/07/25 18:51:15;;;;;;;8.23;2.53;;;23.00;99.90;;;;;;12420947;28;20077;-40
2022/07/25 18:57:17;;;;;;;6.57;2.60;;;22.90;99.90;;;;;;12417352;28;20050;-35
2022/07/25 19:03:19;;;;;;;4.72;2.30;;;22.80;99.90;;;;;;12420267;28;20088;-39
2022/07/25 19:09:20;;;;;;;12.23;3.50;;;22.70;99.90;;;;;;12421155;28;20104;-35
2022/07/25 19:15:23;;;;;;;8.00;2.78;;;22.70;99.90;;;;;;12419788;28;20086;-35
2022/07/25 19:21:24;;;;;;;6.15;2.67;;;22.60;99.90;;;;;;12420650;28;20114;-38
2022/07/25 19:27:27;;;;;;;11.98;2.92;;;22.50;99.90;;;;;;12425564;28;20129;-39
2022/07/25 19:33:29;;;;;;;11.30;2.95;;;22.40;99.90;;;;;;12420926;28;20583;-35
2022/07/25 19:39:36;;;;;;;7.18;2.60;;;22.30;99.90;;;;;;12424266;28;20134;-40
2022/07/25 19:45:38;;;;;;;5.72;2.75;;;22.20;99.90;;;;;;12417449;28;20417;-35
2022/07/25 19:51:40;;;;;;;6.18;2.50;;;22.20;99.90;;;;;;12414452;28;20050;-41
2022/07/25 19:57:42;;;;;;;12.35;2.85;;;22.30;99.90;;;;;;12410928;28;20100;-39
2022/07/25 20:03:44;;;;;;;9.80;2.20;;;22.40;99.90;;;;;;12417386;28;20058;-41
2022/07/25 20:09:46;;;;;;;7.38;2.80;;;22.30;99.90;;;;;;12411915;28;20461;-35
2022/07/25 20:15:48;;;;;;;6.13;2.22;;;22.30;99.90;;;;;;12419350;28;20047;-40
2022/07/25 20:21:50;;;;;;;7.70;2.47;;;22.20;99.90;;;;;;12420899;28;20104;-36
2022/07/25 20:27:52;;;;;;;9.55;2.20;;;22.00;99.90;;;;;;12414700;28;20136;-40
2022/07/25 20:33:54;;;;;;;6.57;2.35;;;21.90;99.90;;;;;;12421835;28;20132;-40
2022/07/25 20:39:56;;;;;;;8.00;1.95;;;21.90;99.90;;;;;;12411714;28;20056;-35
2022/07/25 20:45:59;;;;;;;6.88;1.88;;;21.80;99.90;;;;;;12412514;28;20053;-41
2022/07/25 20:52:01;;;;;;;8.52;1.80;;;21.90;99.90;;;;;;12408136;28;20073;-36
2022/07/25 20:58:03;;;;;;;4.82;1.50;;;21.90;99.90;;;;;;12409837;28;20050;-35
2022/07/25 21:04:06;;;;;;;8.17;1.70;;;21.80;99.90;;;;;;12412757;28;20054;-36
2022/07/25 21:10:09;;;;;;;7.35;1.23;;;21.60;99.90;;;;;;12417495;28;20116;-36
2022/07/25 21:16:11;;;;;;;4.43;1.37;;;21.60;99.90;;;;;;12375826;28;20121;-36
2022/07/25 21:22:14;;;;;;;7.45;1.25;;;21.50;99.90;;;;;;12409438;28;20421;-35
2022/07/25 21:28:16;;;;;;;6.03;1.13;;;21.20;99.90;;;;;;12420308;28;20053;-40
2022/07/25 21:34:18;;;;;;;4.85;1.20;;;21.00;99.90;;;;;;12417654;28;20046;-39
2022/07/25 21:40:21;;;;;;;5.43;1.00;;;21.00;99.90;;;;;;12421321;28;20054;-40
2022/07/25 21:46:23;;;;;;;7.60;1.63;;;21.00;99.90;;;;;;12418086;28;20207;-41
2022/07/25 21:52:25;;;;;;;7.60;1.20;;;21.10;99.90;;;;;;12419119;28;20453;-35
2022/07/25 21:58:34;;;;;;;7.38;0.90;;;21.00;99.90;;;;;;12423658;28;20080;-40
2022/07/25 22:04:36;;;;;;;11.63;1.10;;;21.10;99.90;;;;;;12416570;28;20140;-39
2022/07/25 22:10:38;;;;;;;6.68;1.20;;;20.90;99.90;;;;;;12420521;28;20523;-35
2022/07/25 22:16:40;;;;;;;8.10;1.00;;;20.70;99.90;;;;;;12435356;28;20100;-40
2022/07/25 22:22:42;;;;;;;5.85;0.90;;;20.60;99.90;;;;;;12420893;28;20061;-35
2022/07/25 22:28:44;;;;;;;5.15;1.33;;;20.50;99.90;;;;;;12427392;28;20512;-38
2022/07/25 22:34:46;;;;;;;7.95;1.02;;;20.40;99.90;;;;;;12427865;28;20042;-39
2022/07/25 22:40:48;;;;;;;7.28;1.05;;;20.30;99.90;;;;;;12431059;28;20545;-35
2022/07/25 22:46:50;;;;;;;8.93;1.25;;;20.50;99.90;;;;;;12430114;28;20054;-40
2022/07/25 22:52:52;;;;;;;6.00;1.20;;;20.50;99.90;;;;;;12408640;28;20112;-35
2022/07/25 22:58:54;;;;;;;6.35;1.02;;;20.50;99.90;;;;;;12418624;28;20050;-35
2022/07/25 23:04:56;;;;;;;7.90;1.02;;;20.40;99.90;;;;;;12420412;28;20050;-39
2022/07/25 23:10:57;;;;;;;5.65;1.10;;;20.40;99.90;;;;;;12423717;28;20568;-37
2022/07/25 23:17:18;;;;;;;5.55;0.80;;;20.40;99.90;;;;;;12432822;28;20046;-40
2022/07/25 23:23:20;;;;;;;2.90;0.70;;;20.60;99.90;;;;;;12418587;28;20093;-35
2022/07/25 23:29:22;;;;;;;3.65;0.90;;;20.70;99.90;;;;;;12421290;28;20108;-35
2022/07/25 23:35:24;;;;;;;4.72;0.88;;;20.60;99.90;;;;;;12416672;28;20525;-40
2022/07/25 23:41:26;;;;;;;8.88;1.38;;;20.50;99.90;;;;;;12416730;28;20046;-39
2022/07/25 23:47:28;;;;;;;4.35;1.35;;;20.40;99.90;;;;;;12429001;28;20514;-39
2022/07/25 23:53:41;;;;;;;2.23;0.63;;;20.00;99.90;;;;;;12416373;28;20073;-39
2022/07/25 23:59:43;;;;;;;6.07;0.90;;;20.10;99.90;;;;;;12412904;28;20494;-35
